sensor_id;sensor_type;location;lat;lon;timestamp;temperature;humidity
21580;DHT22;10951;59.656;9.666;2022-09-09T00:04:26;12.20;86.80
21580;DHT22;10951;59.656;9.666;2022-09-09T00:09:49;12.20;86.60
21580;DHT22;10951;59.656;9.666;2022-09-09T00:12:39;12.20;86.50
21580;DHT22;10951;59.656;9.666;2022-09-09T00:15:25;12.20;86.70
21580;DHT22;10951;59.656;9.666;2022-09-09T00:23:16;12.20;87.00
21580;DHT22;10951;59.656;9.666;2022-09-09T00:31:26;12.30;87.00
21580;DHT22;10951;59.656;9.666;2022-09-09T00:33:56;12.20;87.10
21580;DHT22;10951;59.656;9.666;2022-09-09T00:36:27;12.20;87.60
21580;DHT22;10951;59.656;9.666;2022-09-09T00:38:58;12.10;87.70
21580;DHT22;10951;59.656;9.666;2022-09-09T00:44:22;12.10;88.00
21580;DHT22;10951;59.656;9.666;2022-09-09T00:58:36;12.10;88.30
21580;DHT22;10951;59.656;9.666;2022-09-09T01:01:07;12.00;88.20
21580;DHT22;10951;59.656;9.666;2022-09-09T01:06:22;12.00;89.10
21580;DHT22;10951;59.656;9.666;2022-09-09T01:09:24;12.00;89.00
21580;DHT22;10951;59.656;9.666;2022-09-09T01:12:09;12.00;88.90
21580;DHT22;10951;59.656;9.666;2022-09-09T01:14:43;12.00;89.20
21580;DHT22;10951;59.656;9.666;2022-09-09T01:20:17;12.00;89.60
21580;DHT22;10951;59.656;9.666;2022-09-09T01:26:15;11.90;89.70
21580;DHT22;10951;59.656;9.666;2022-09-09T01:28:45;11.90;90.40
21580;DHT22;10951;59.656;9.666;2022-09-09T01:31:32;11.80;89.90
21580;DHT22;10951;59.656;9.666;2022-09-09T01:34:04;11.90;90.30
21580;DHT22;10951;59.656;9.666;2022-09-09T01:36:57;11.90;90.20
21580;DHT22;10951;59.656;9.666;2022-09-09T01:39:26;11.80;90.50
21580;DHT22;10951;59.656;9.666;2022-09-09T01:42:04;11.80;90.50
21580;DHT22;10951;59.656;9.666;2022-09-09T01:44:32;11.90;90.60
21580;DHT22;10951;59.656;9.666;2022-09-09T01:47:01;11.90;90.40
21580;DHT22;10951;59.656;9.666;2022-09-09T01:49:29;11.90;90.60
21580;DHT22;10951;59.656;9.666;2022-09-09T01:51:57;11.90;90.60
21580;DHT22;10951;59.656;9.666;2022-09-09T01:54:31;11.90;90.70
21580;DHT22;10951;59.656;9.666;2022-09-09T01:57:10;11.80;90.70
21580;DHT22;10951;59.656;9.666;2022-09-09T02:07:52;11.80;91.00
21580;DHT22;10951;59.656;9.666;2022-09-09T02:10:33;11.80;91.10
21580;DHT22;10951;59.656;9.666;2022-09-09T02:13:17;11.80;91.10
21580;DHT22;10951;59.656;9.666;2022-09-09T02:16:00;11.80;91.20
21580;DHT22;10951;59.656;9.666;2022-09-09T02:21:22;11.80;91.40
21580;DHT22;10951;59.656;9.666;2022-09-09T02:23:50;11.80;91.50
21580;DHT22;10951;59.656;9.666;2022-09-09T02:26:21;11.70;91.60
21580;DHT22;10951;59.656;9.666;2022-09-09T02:28:57;11.70;91.80
21580;DHT22;10951;59.656;9.666;2022-09-09T02:31:42;11.70;91.90
21580;DHT22;10951;59.656;9.666;2022-09-09T02:34:17;11.70;92.10
21580;DHT22;10951;59.656;9.666;2022-09-09T02:36:46;11.70;92.00
21580;DHT22;10951;59.656;9.666;2022-09-09T02:39:15;11.70;92.10
21580;DHT22;10951;59.656;9.666;2022-09-09T02:41:42;11.60;92.20
21580;DHT22;10951;59.656;9.666;2022-09-09T02:44:14;11.60;92.20
21580;DHT22;10951;59.656;9.666;2022-09-09T02:52:33;11.60;92.50
21580;DHT22;10951;59.656;9.666;2022-09-09T02:55:18;11.60;92.60
21580;DHT22;10951;59.656;9.666;2022-09-09T02:57:50;11.60;92.60
21580;DHT22;10951;59.656;9.666;2022-09-09T03:00:26;11.60;92.70
21580;DHT22;10951;59.656;9.666;2022-09-09T03:02:58;11.50;92.80
21580;DHT22;10951;59.656;9.666;2022-09-09T03:05:25;11.50;93.00
21580;DHT22;10951;59.656;9.666;2022-09-09T03:07:52;11.50;93.00
21580;DHT22;10951;59.656;9.666;2022-09-09T03:10:20;11.60;93.00
21580;DHT22;10951;59.656;9.666;2022-09-09T03:12:47;11.60;93.10
21580;DHT22;10951;59.656;9.666;2022-09-09T03:15:15;11.50;93.20
21580;DHT22;10951;59.656;9.666;2022-09-09T03:17:42;11.50;93.20
21580;DHT22;10951;59.656;9.666;2022-09-09T03:20:09;11.50;93.20
21580;DHT22;10951;59.656;9.666;2022-09-09T03:22:37;11.50;93.20
21580;DHT22;10951;59.656;9.666;2022-09-09T03:25:05;11.60;93.30
21580;DHT22;10951;59.656;9.666;2022-09-09T03:27:35;11.60;93.30
21580;DHT22;10951;59.656;9.666;2022-09-09T03:30:03;11.60;93.40
21580;DHT22;10951;59.656;9.666;2022-09-09T03:32:30;11.60;93.40
21580;DHT22;10951;59.656;9.666;2022-09-09T03:34:58;11.60;93.40
21580;DHT22;10951;59.656;9.666;2022-09-09T03:37:25;11.50;93.50
21580;DHT22;10951;59.656;9.666;2022-09-09T03:39:52;11.50;93.60
21580;DHT22;10951;59.656;9.666;2022-09-09T03:42:22;11.50;93.60
21580;DHT22;10951;59.656;9.666;2022-09-09T03:44:52;11.50;93.70
21580;DHT22;10951;59.656;9.666;2022-09-09T03:47:22;11.40;93.80
21580;DHT22;10951;59.656;9.666;2022-09-09T03:49:53;11.40;93.90
21580;DHT22;10951;59.656;9.666;2022-09-09T03:52:20;11.40;94.10
21580;DHT22;10951;59.656;9.666;2022-09-09T03:54:51;11.40;94.10
21580;DHT22;10951;59.656;9.666;2022-09-09T03:57:18;11.40;94.20
21580;DHT22;10951;59.656;9.666;2022-09-09T03:59:45;11.40;94.20
21580;DHT22;10951;59.656;9.666;2022-09-09T04:02:12;11.40;94.20
21580;DHT22;10951;59.656;9.666;2022-09-09T04:04:39;11.40;94.20
21580;DHT22;10951;59.656;9.666;2022-09-09T04:07:06;11.50;94.30
21580;DHT22;10951;59.656;9.666;2022-09-09T04:09:33;11.40;94.30
21580;DHT22;10951;59.656;9.666;2022-09-09T04:12:02;11.40;94.40
21580;DHT22;10951;59.656;9.666;2022-09-09T04:14:29;11.50;94.30
21580;DHT22;10951;59.656;9.666;2022-09-09T04:16:57;11.40;94.40
21580;DHT22;10951;59.656;9.666;2022-09-09T04:19:26;11.40;94.60
21580;DHT22;10951;59.656;9.666;2022-09-09T04:21:53;11.30;94.70
21580;DHT22;10951;59.656;9.666;2022-09-09T04:24:21;11.30;94.80
21580;DHT22;10951;59.656;9.666;2022-09-09T04:26:49;11.30;94.90
21580;DHT22;10951;59.656;9.666;2022-09-09T04:29:17;11.30;95.00
21580;DHT22;10951;59.656;9.666;2022-09-09T04:31:44;11.30;94.90
21580;DHT22;10951;59.656;9.666;2022-09-09T04:34:12;11.30;95.00
21580;DHT22;10951;59.656;9.666;2022-09-09T04:36:39;11.30;95.10
21580;DHT22;10951;59.656;9.666;2022-09-09T04:39:08;11.30;95.10
21580;DHT22;10951;59.656;9.666;2022-09-09T04:41:35;11.30;95.20
21580;DHT22;10951;59.656;9.666;2022-09-09T04:44:03;11.30;95.20
21580;DHT22;10951;59.656;9.666;2022-09-09T04:46:31;11.30;95.20
21580;DHT22;10951;59.656;9.666;2022-09-09T04:49:00;11.20;95.30
21580;DHT22;10951;59.656;9.666;2022-09-09T04:51:30;11.20;95.40
21580;DHT22;10951;59.656;9.666;2022-09-09T04:53:58;11.20;95.30
21580;DHT22;10951;59.656;9.666;2022-09-09T04:56:25;11.20;95.50
21580;DHT22;10951;59.656;9.666;2022-09-09T04:58:56;11.10;95.50
21580;DHT22;10951;59.656;9.666;2022-09-09T05:01:32;11.10;95.50
21580;DHT22;10951;59.656;9.666;2022-09-09T05:04:02;11.30;95.40
21580;DHT22;10951;59.656;9.666;2022-09-09T05:06:32;11.30;95.30
21580;DHT22;10951;59.656;9.666;2022-09-09T05:09:00;11.20;95.30
21580;DHT22;10951;59.656;9.666;2022-09-09T05:11:30;11.20;95.30
21580;DHT22;10951;59.656;9.666;2022-09-09T05:14:25;11.20;95.20
21580;DHT22;10951;59.656;9.666;2022-09-09T05:16:52;11.20;95.20
21580;DHT22;10951;59.656;9.666;2022-09-09T05:19:20;11.30;95.20
21580;DHT22;10951;59.656;9.666;2022-09-09T05:21:48;11.30;95.20
21580;DHT22;10951;59.656;9.666;2022-09-09T05:24:18;11.30;95.20
21580;DHT22;10951;59.656;9.666;2022-09-09T05:26:47;11.20;95.20
21580;DHT22;10951;59.656;9.666;2022-09-09T05:29:15;11.20;95.30
21580;DHT22;10951;59.656;9.666;2022-09-09T05:31:46;11.20;95.30
21580;DHT22;10951;59.656;9.666;2022-09-09T05:34:17;11.20;95.40
21580;DHT22;10951;59.656;9.666;2022-09-09T05:36:44;11.20;95.50
21580;DHT22;10951;59.656;9.666;2022-09-09T05:39:11;11.30;95.50
21580;DHT22;10951;59.656;9.666;2022-09-09T05:41:38;11.30;95.50
21580;DHT22;10951;59.656;9.666;2022-09-09T05:44:06;11.40;95.20
21580;DHT22;10951;59.656;9.666;2022-09-09T05:46:37;11.40;95.40
21580;DHT22;10951;59.656;9.666;2022-09-09T05:49:04;11.40;95.00
21580;DHT22;10951;59.656;9.666;2022-09-09T05:51:33;11.40;95.00
21580;DHT22;10951;59.656;9.666;2022-09-09T05:54:09;11.40;95.10
21580;DHT22;10951;59.656;9.666;2022-09-09T05:56:40;11.40;95.10
21580;DHT22;10951;59.656;9.666;2022-09-09T05:59:08;11.30;95.10
21580;DHT22;10951;59.656;9.666;2022-09-09T06:01:36;11.20;95.20
21580;DHT22;10951;59.656;9.666;2022-09-09T06:04:12;11.20;95.30
21580;DHT22;10951;59.656;9.666;2022-09-09T06:06:40;11.20;95.40
21580;DHT22;10951;59.656;9.666;2022-09-09T06:09:15;11.20;95.50
21580;DHT22;10951;59.656;9.666;2022-09-09T06:11:42;11.20;95.40
21580;DHT22;10951;59.656;9.666;2022-09-09T06:14:10;11.20;95.30
21580;DHT22;10951;59.656;9.666;2022-09-09T06:16:39;11.20;95.30
21580;DHT22;10951;59.656;9.666;2022-09-09T06:19:13;11.20;95.20
21580;DHT22;10951;59.656;9.666;2022-09-09T06:21:41;11.20;95.30
21580;DHT22;10951;59.656;9.666;2022-09-09T06:24:10;11.20;95.30
21580;DHT22;10951;59.656;9.666;2022-09-09T06:26:39;11.20;95.40
21580;DHT22;10951;59.656;9.666;2022-09-09T06:29:10;11.20;95.50
21580;DHT22;10951;59.656;9.666;2022-09-09T06:31:38;11.20;95.40
21580;DHT22;10951;59.656;9.666;2022-09-09T06:34:12;11.20;95.30
21580;DHT22;10951;59.656;9.666;2022-09-09T06:36:45;11.20;95.20
21580;DHT22;10951;59.656;9.666;2022-09-09T06:39:12;11.30;95.20
21580;DHT22;10951;59.656;9.666;2022-09-09T06:41:41;11.30;95.20
21580;DHT22;10951;59.656;9.666;2022-09-09T06:44:27;11.30;95.20
21580;DHT22;10951;59.656;9.666;2022-09-09T06:47:01;11.40;94.80
21580;DHT22;10951;59.656;9.666;2022-09-09T06:49:29;11.40;94.60
21580;DHT22;10951;59.656;9.666;2022-09-09T06:51:56;11.50;94.50
21580;DHT22;10951;59.656;9.666;2022-09-09T06:54:24;11.50;94.40
21580;DHT22;10951;59.656;9.666;2022-09-09T06:56:52;11.40;94.50
21580;DHT22;10951;59.656;9.666;2022-09-09T06:59:22;11.40;94.20
21580;DHT22;10951;59.656;9.666;2022-09-09T07:01:52;11.50;94.30
21580;DHT22;10951;59.656;9.666;2022-09-09T07:04:22;11.50;94.40
21580;DHT22;10951;59.656;9.666;2022-09-09T07:06:49;11.50;94.20
21580;DHT22;10951;59.656;9.666;2022-09-09T07:09:20;11.50;94.10
21580;DHT22;10951;59.656;9.666;2022-09-09T07:11:51;11.60;94.10
21580;DHT22;10951;59.656;9.666;2022-09-09T07:14:21;11.60;93.90
21580;DHT22;10951;59.656;9.666;2022-09-09T07:16:55;11.70;93.90
21580;DHT22;10951;59.656;9.666;2022-09-09T07:19:27;11.70;93.80
21580;DHT22;10951;59.656;9.666;2022-09-09T07:21:55;11.70;93.60
21580;DHT22;10951;59.656;9.666;2022-09-09T07:24:23;11.70;93.50
21580;DHT22;10951;59.656;9.666;2022-09-09T07:26:51;11.70;93.50
21580;DHT22;10951;59.656;9.666;2022-09-09T07:29:19;11.80;93.60
21580;DHT22;10951;59.656;9.666;2022-09-09T07:31:48;11.80;93.20
21580;DHT22;10951;59.656;9.666;2022-09-09T07:34:21;11.80;93.20
21580;DHT22;10951;59.656;9.666;2022-09-09T07:36:50;11.80;92.90
21580;DHT22;10951;59.656;9.666;2022-09-09T07:39:18;11.80;92.90
21580;DHT22;10951;59.656;9.666;2022-09-09T07:41:50;11.80;92.80
21580;DHT22;10951;59.656;9.666;2022-09-09T07:44:23;12.00;92.90
21580;DHT22;10951;59.656;9.666;2022-09-09T07:47:07;12.10;92.60
21580;DHT22;10951;59.656;9.666;2022-09-09T07:49:39;12.20;92.20
21580;DHT22;10951;59.656;9.666;2022-09-09T07:52:08;12.20;92.30
21580;DHT22;10951;59.656;9.666;2022-09-09T07:54:37;12.40;92.30
21580;DHT22;10951;59.656;9.666;2022-09-09T07:57:05;12.50;91.80
21580;DHT22;10951;59.656;9.666;2022-09-09T07:59:35;12.40;91.10
21580;DHT22;10951;59.656;9.666;2022-09-09T08:02:03;12.40;91.10
21580;DHT22;10951;59.656;9.666;2022-09-09T08:04:33;12.40;91.40
21580;DHT22;10951;59.656;9.666;2022-09-09T08:07:02;12.40;91.10
21580;DHT22;10951;59.656;9.666;2022-09-09T08:09:36;12.40;91.30
21580;DHT22;10951;59.656;9.666;2022-09-09T08:12:12;12.50;91.20
21580;DHT22;10951;59.656;9.666;2022-09-09T08:14:40;12.50;90.90
21580;DHT22;10951;59.656;9.666;2022-09-09T08:17:07;12.60;91.20
21580;DHT22;10951;59.656;9.666;2022-09-09T08:19:33;12.60;90.90
21580;DHT22;10951;59.656;9.666;2022-09-09T08:22:07;12.60;90.70
21580;DHT22;10951;59.656;9.666;2022-09-09T08:24:37;12.60;91.00
21580;DHT22;10951;59.656;9.666;2022-09-09T08:27:04;12.60;91.00
21580;DHT22;10951;59.656;9.666;2022-09-09T08:29:32;12.60;91.30
21580;DHT22;10951;59.656;9.666;2022-09-09T08:31:59;12.60;91.20
21580;DHT22;10951;59.656;9.666;2022-09-09T08:34:27;12.50;91.00
21580;DHT22;10951;59.656;9.666;2022-09-09T08:36:56;12.40;90.90
21580;DHT22;10951;59.656;9.666;2022-09-09T08:39:33;12.40;91.00
21580;DHT22;10951;59.656;9.666;2022-09-09T08:42:35;12.40;91.30
21580;DHT22;10951;59.656;9.666;2022-09-09T08:51:55;12.40;91.10
21580;DHT22;10951;59.656;9.666;2022-09-09T08:54:24;12.50;91.20
21580;DHT22;10951;59.656;9.666;2022-09-09T08:57:21;12.60;90.90
21580;DHT22;10951;59.656;9.666;2022-09-09T08:59:50;12.60;90.60
21580;DHT22;10951;59.656;9.666;2022-09-09T09:02:42;12.60;91.10
21580;DHT22;10951;59.656;9.666;2022-09-09T09:08:26;12.80;90.80
21580;DHT22;10951;59.656;9.666;2022-09-09T09:10:57;12.90;91.00
21580;DHT22;10951;59.656;9.666;2022-09-09T09:13:37;12.90;90.70
21580;DHT22;10951;59.656;9.666;2022-09-09T09:16:30;13.00;90.50
21580;DHT22;10951;59.656;9.666;2022-09-09T09:19:01;13.00;90.20
21580;DHT22;10951;59.656;9.666;2022-09-09T09:21:42;12.90;90.40
21580;DHT22;10951;59.656;9.666;2022-09-09T09:24:20;13.00;90.10
21580;DHT22;10951;59.656;9.666;2022-09-09T09:26:49;13.00;90.10
21580;DHT22;10951;59.656;9.666;2022-09-09T09:29:19;13.00;89.80
21580;DHT22;10951;59.656;9.666;2022-09-09T09:31:55;12.90;89.30
21580;DHT22;10951;59.656;9.666;2022-09-09T09:34:24;12.80;88.90
21580;DHT22;10951;59.656;9.666;2022-09-09T09:36:58;12.80;89.10
21580;DHT22;10951;59.656;9.666;2022-09-09T09:39:32;12.90;89.30
21580;DHT22;10951;59.656;9.666;2022-09-09T09:42:27;13.00;88.70
21580;DHT22;10951;59.656;9.666;2022-09-09T09:44:56;13.10;88.10
21580;DHT22;10951;59.656;9.666;2022-09-09T09:47:33;13.10;89.00
21580;DHT22;10951;59.656;9.666;2022-09-09T09:50:19;13.20;88.00
21580;DHT22;10951;59.656;9.666;2022-09-09T09:52:58;13.20;87.50
21580;DHT22;10951;59.656;9.666;2022-09-09T09:55:30;13.30;87.40
21580;DHT22;10951;59.656;9.666;2022-09-09T09:58:05;13.20;87.00
21580;DHT22;10951;59.656;9.666;2022-09-09T10:00:34;13.30;87.40
21580;DHT22;10951;59.656;9.666;2022-09-09T10:03:32;13.30;87.00
21580;DHT22;10951;59.656;9.666;2022-09-09T10:06:00;13.30;86.40
21580;DHT22;10951;59.656;9.666;2022-09-09T10:08:28;13.30;87.00
21580;DHT22;10951;59.656;9.666;2022-09-09T10:19:13;12.90;88.30
21580;DHT22;10951;59.656;9.666;2022-09-09T10:21:48;12.90;88.40
21580;DHT22;10951;59.656;9.666;2022-09-09T10:32:56;13.00;89.40
21580;DHT22;10951;59.656;9.666;2022-09-09T10:35:31;13.10;88.70
21580;DHT22;10951;59.656;9.666;2022-09-09T10:43:24;13.20;87.20
21580;DHT22;10951;59.656;9.666;2022-09-09T10:48:59;13.40;86.50
21580;DHT22;10951;59.656;9.666;2022-09-09T10:56:35;13.50;85.20
21580;DHT22;10951;59.656;9.666;2022-09-09T11:02:06;13.50;85.30
21580;DHT22;10951;59.656;9.666;2022-09-09T11:04:45;13.60;84.00
21580;DHT22;10951;59.656;9.666;2022-09-09T11:07:25;13.60;83.80
21580;DHT22;10951;59.656;9.666;2022-09-09T11:10:02;13.50;82.80
21580;DHT22;10951;59.656;9.666;2022-09-09T11:12:36;13.50;84.00
21580;DHT22;10951;59.656;9.666;2022-09-09T11:15:04;13.60;83.60
21580;DHT22;10951;59.656;9.666;2022-09-09T11:18:05;13.70;83.30
21580;DHT22;10951;59.656;9.666;2022-09-09T11:20:33;14.00;83.30
21580;DHT22;10951;59.656;9.666;2022-09-09T11:23:11;14.10;82.90
21580;DHT22;10951;59.656;9.666;2022-09-09T11:25:43;14.20;81.40
21580;DHT22;10951;59.656;9.666;2022-09-09T11:42:19;14.40;78.30
21580;DHT22;10951;59.656;9.666;2022-09-09T11:44:47;14.60;78.20
21580;DHT22;10951;59.656;9.666;2022-09-09T11:47:24;14.50;77.30
21580;DHT22;10951;59.656;9.666;2022-09-09T11:49:53;14.30;78.20
21580;DHT22;10951;59.656;9.666;2022-09-09T11:54:49;14.20;77.50
21580;DHT22;10951;59.656;9.666;2022-09-09T11:57:24;14.10;78.30
21580;DHT22;10951;59.656;9.666;2022-09-09T11:59:52;14.00;78.60
21580;DHT22;10951;59.656;9.666;2022-09-09T12:02:24;14.10;79.00
21580;DHT22;10951;59.656;9.666;2022-09-09T12:04:59;14.10;78.20
21580;DHT22;10951;59.656;9.666;2022-09-09T12:07:33;14.10;77.80
21580;DHT22;10951;59.656;9.666;2022-09-09T12:12:51;14.20;76.30
21580;DHT22;10951;59.656;9.666;2022-09-09T12:15:20;14.10;76.50
21580;DHT22;10951;59.656;9.666;2022-09-09T12:17:50;14.00;76.90
21580;DHT22;10951;59.656;9.666;2022-09-09T12:20:36;14.00;77.10
21580;DHT22;10951;59.656;9.666;2022-09-09T12:23:30;13.90;77.70
21580;DHT22;10951;59.656;9.666;2022-09-09T12:34:42;14.00;78.40
21580;DHT22;10951;59.656;9.666;2022-09-09T12:40:00;14.50;78.50
21580;DHT22;10951;59.656;9.666;2022-09-09T12:42:40;14.50;76.70
21580;DHT22;10951;59.656;9.666;2022-09-09T12:45:19;14.60;76.30
21580;DHT22;10951;59.656;9.666;2022-09-09T12:47:58;14.60;76.70
21580;DHT22;10951;59.656;9.666;2022-09-09T12:50:33;14.60;76.90
21580;DHT22;10951;59.656;9.666;2022-09-09T12:53:08;14.60;76.80
21580;DHT22;10951;59.656;9.666;2022-09-09T12:55:38;14.70;75.60
21580;DHT22;10951;59.656;9.666;2022-09-09T12:58:06;14.60;75.20
21580;DHT22;10951;59.656;9.666;2022-09-09T13:00:34;14.60;75.90
21580;DHT22;10951;59.656;9.666;2022-09-09T13:03:17;14.70;75.70
21580;DHT22;10951;59.656;9.666;2022-09-09T13:05:44;14.70;75.00
21580;DHT22;10951;59.656;9.666;2022-09-09T13:08:14;14.50;75.90
21580;DHT22;10951;59.656;9.666;2022-09-09T13:10:54;14.50;76.60
21580;DHT22;10951;59.656;9.666;2022-09-09T13:16:00;14.40;77.70
21580;DHT22;10951;59.656;9.666;2022-09-09T13:18:30;14.40;77.50
21580;DHT22;10951;59.656;9.666;2022-09-09T13:20:59;14.30;77.10
21580;DHT22;10951;59.656;9.666;2022-09-09T13:23:34;14.20;77.30
21580;DHT22;10951;59.656;9.666;2022-09-09T13:26:23;14.10;77.90
21580;DHT22;10951;59.656;9.666;2022-09-09T13:28:55;14.00;78.00
21580;DHT22;10951;59.656;9.666;2022-09-09T13:31:32;14.00;78.80
21580;DHT22;10951;59.656;9.666;2022-09-09T13:34:11;14.00;78.30
21580;DHT22;10951;59.656;9.666;2022-09-09T13:36:40;14.00;79.00
21580;DHT22;10951;59.656;9.666;2022-09-09T13:39:17;14.00;78.70
21580;DHT22;10951;59.656;9.666;2022-09-09T13:41:46;14.10;79.30
21580;DHT22;10951;59.656;9.666;2022-09-09T13:44:24;14.00;78.50
21580;DHT22;10951;59.656;9.666;2022-09-09T13:49:33;14.10;79.00
21580;DHT22;10951;59.656;9.666;2022-09-09T13:52:22;14.20;78.40
21580;DHT22;10951;59.656;9.666;2022-09-09T13:54:50;14.20;78.60
21580;DHT22;10951;59.656;9.666;2022-09-09T13:57:23;14.10;77.70
21580;DHT22;10951;59.656;9.666;2022-09-09T13:59:53;14.00;78.20
21580;DHT22;10951;59.656;9.666;2022-09-09T14:02:37;14.00;79.00
21580;DHT22;10951;59.656;9.666;2022-09-09T14:05:06;14.00;78.70
21580;DHT22;10951;59.656;9.666;2022-09-09T14:07:33;14.00;79.10
21580;DHT22;10951;59.656;9.666;2022-09-09T14:10:00;14.00;79.30
21580;DHT22;10951;59.656;9.666;2022-09-09T14:12:27;14.10;79.50
21580;DHT22;10951;59.656;9.666;2022-09-09T14:14:54;14.10;78.90
21580;DHT22;10951;59.656;9.666;2022-09-09T14:17:21;14.10;78.80
21580;DHT22;10951;59.656;9.666;2022-09-09T14:19:48;14.10;79.00
21580;DHT22;10951;59.656;9.666;2022-09-09T14:22:15;14.10;78.20
21580;DHT22;10951;59.656;9.666;2022-09-09T14:24:42;14.10;78.20
21580;DHT22;10951;59.656;9.666;2022-09-09T14:27:09;14.00;78.20
21580;DHT22;10951;59.656;9.666;2022-09-09T14:29:36;14.00;78.30
21580;DHT22;10951;59.656;9.666;2022-09-09T14:32:04;14.00;78.50
21580;DHT22;10951;59.656;9.666;2022-09-09T14:34:36;14.00;78.70
21580;DHT22;10951;59.656;9.666;2022-09-09T14:37:03;14.00;78.50
21580;DHT22;10951;59.656;9.666;2022-09-09T14:39:30;13.90;78.60
21580;DHT22;10951;59.656;9.666;2022-09-09T14:41:57;13.90;78.70
21580;DHT22;10951;59.656;9.666;2022-09-09T14:44:24;13.90;78.40
21580;DHT22;10951;59.656;9.666;2022-09-09T14:46:51;14.00;78.20
21580;DHT22;10951;59.656;9.666;2022-09-09T14:49:20;13.90;78.30
21580;DHT22;10951;59.656;9.666;2022-09-09T14:51:47;13.90;78.50
21580;DHT22;10951;59.656;9.666;2022-09-09T14:54:14;13.90;78.60
21580;DHT22;10951;59.656;9.666;2022-09-09T14:56:41;13.90;78.40
21580;DHT22;10951;59.656;9.666;2022-09-09T14:59:08;13.90;78.70
21580;DHT22;10951;59.656;9.666;2022-09-09T15:01:35;14.00;78.70
21580;DHT22;10951;59.656;9.666;2022-09-09T15:04:05;14.00;78.20
21580;DHT22;10951;59.656;9.666;2022-09-09T15:06:35;14.00;78.70
21580;DHT22;10951;59.656;9.666;2022-09-09T15:09:06;14.10;78.40
21580;DHT22;10951;59.656;9.666;2022-09-09T15:11:37;14.10;78.30
21580;DHT22;10951;59.656;9.666;2022-09-09T15:14:08;14.10;78.30
21580;DHT22;10951;59.656;9.666;2022-09-09T15:16:36;14.00;78.00
21580;DHT22;10951;59.656;9.666;2022-09-09T15:19:05;14.10;78.50
21580;DHT22;10951;59.656;9.666;2022-09-09T15:21:34;14.00;78.30
21580;DHT22;10951;59.656;9.666;2022-09-09T15:24:02;14.10;78.10
21580;DHT22;10951;59.656;9.666;2022-09-09T15:26:29;14.10;78.30
21580;DHT22;10951;59.656;9.666;2022-09-09T15:28:57;14.10;77.90
21580;DHT22;10951;59.656;9.666;2022-09-09T15:31:28;14.10;78.00
21580;DHT22;10951;59.656;9.666;2022-09-09T15:34:03;14.10;78.10
21580;DHT22;10951;59.656;9.666;2022-09-09T15:39:12;14.10;78.00
21580;DHT22;10951;59.656;9.666;2022-09-09T15:41:40;14.10;78.70
21580;DHT22;10951;59.656;9.666;2022-09-09T15:44:08;14.10;78.70
21580;DHT22;10951;59.656;9.666;2022-09-09T15:46:40;14.00;79.10
21580;DHT22;10951;59.656;9.666;2022-09-09T15:49:15;14.00;79.00
21580;DHT22;10951;59.656;9.666;2022-09-09T15:51:46;14.00;79.70
21580;DHT22;10951;59.656;9.666;2022-09-09T15:54:16;14.00;79.20
21580;DHT22;10951;59.656;9.666;2022-09-09T15:56:50;14.00;79.10
21580;DHT22;10951;59.656;9.666;2022-09-09T15:59:17;14.00;78.90
21580;DHT22;10951;59.656;9.666;2022-09-09T16:01:44;14.00;78.60
21580;DHT22;10951;59.656;9.666;2022-09-09T16:04:12;14.00;78.90
21580;DHT22;10951;59.656;9.666;2022-09-09T16:06:39;14.00;78.90
21580;DHT22;10951;59.656;9.666;2022-09-09T16:09:07;14.00;78.70
21580;DHT22;10951;59.656;9.666;2022-09-09T16:11:37;13.90;79.00
21580;DHT22;10951;59.656;9.666;2022-09-09T16:14:04;13.90;79.00
21580;DHT22;10951;59.656;9.666;2022-09-09T16:16:34;13.90;78.90
21580;DHT22;10951;59.656;9.666;2022-09-09T16:19:07;13.90;79.00
21580;DHT22;10951;59.656;9.666;2022-09-09T16:21:44;13.90;79.00
21580;DHT22;10951;59.656;9.666;2022-09-09T16:24:14;13.90;78.80
21580;DHT22;10951;59.656;9.666;2022-09-09T16:26:43;13.90;78.90
21580;DHT22;10951;59.656;9.666;2022-09-09T16:29:13;13.90;79.00
21580;DHT22;10951;59.656;9.666;2022-09-09T16:31:41;13.90;78.70
21580;DHT22;10951;59.656;9.666;2022-09-09T16:34:10;13.90;78.70
21580;DHT22;10951;59.656;9.666;2022-09-09T16:36:39;13.90;79.00
21580;DHT22;10951;59.656;9.666;2022-09-09T16:39:12;13.90;79.60
21580;DHT22;10951;59.656;9.666;2022-09-09T16:41:40;13.90;79.60
21580;DHT22;10951;59.656;9.666;2022-09-09T16:44:09;13.80;79.40
21580;DHT22;10951;59.656;9.666;2022-09-09T16:46:40;13.90;79.60
21580;DHT22;10951;59.656;9.666;2022-09-09T16:49:10;13.90;79.90
21580;DHT22;10951;59.656;9.666;2022-09-09T16:51:46;13.90;79.70
21580;DHT22;10951;59.656;9.666;2022-09-09T16:54:14;13.90;79.80
21580;DHT22;10951;59.656;9.666;2022-09-09T16:56:45;13.90;79.70
21580;DHT22;10951;59.656;9.666;2022-09-09T16:59:18;13.90;79.80
21580;DHT22;10951;59.656;9.666;2022-09-09T17:01:47;13.90;79.60
21580;DHT22;10951;59.656;9.666;2022-09-09T17:04:20;13.90;79.60
21580;DHT22;10951;59.656;9.666;2022-09-09T17:06:49;13.90;79.80
21580;DHT22;10951;59.656;9.666;2022-09-09T17:09:17;13.90;80.00
21580;DHT22;10951;59.656;9.666;2022-09-09T17:11:44;14.00;79.40
21580;DHT22;10951;59.656;9.666;2022-09-09T17:14:15;14.00;79.50
21580;DHT22;10951;59.656;9.666;2022-09-09T17:16:43;14.00;79.60
21580;DHT22;10951;59.656;9.666;2022-09-09T17:19:11;13.90;80.10
21580;DHT22;10951;59.656;9.666;2022-09-09T17:21:38;13.90;79.40
21580;DHT22;10951;59.656;9.666;2022-09-09T17:24:26;13.90;79.00
21580;DHT22;10951;59.656;9.666;2022-09-09T17:26:56;13.90;79.10
21580;DHT22;10951;59.656;9.666;2022-09-09T17:29:24;13.90;79.10
21580;DHT22;10951;59.656;9.666;2022-09-09T17:31:51;13.80;79.10
21580;DHT22;10951;59.656;9.666;2022-09-09T17:34:18;13.90;79.30
21580;DHT22;10951;59.656;9.666;2022-09-09T17:36:45;13.80;79.50
21580;DHT22;10951;59.656;9.666;2022-09-09T17:39:13;13.80;79.80
21580;DHT22;10951;59.656;9.666;2022-09-09T17:41:40;13.70;79.60
21580;DHT22;10951;59.656;9.666;2022-09-09T17:44:08;13.70;80.10
21580;DHT22;10951;59.656;9.666;2022-09-09T17:46:41;13.70;79.60
21580;DHT22;10951;59.656;9.666;2022-09-09T17:49:11;13.70;80.00
21580;DHT22;10951;59.656;9.666;2022-09-09T17:51:38;13.60;80.20
21580;DHT22;10951;59.656;9.666;2022-09-09T17:54:19;13.60;80.20
21580;DHT22;10951;59.656;9.666;2022-09-09T17:56:47;13.60;80.20
21580;DHT22;10951;59.656;9.666;2022-09-09T17:59:15;13.50;80.40
21580;DHT22;10951;59.656;9.666;2022-09-09T18:01:45;13.50;81.00
21580;DHT22;10951;59.656;9.666;2022-09-09T18:04:14;13.40;80.90
21580;DHT22;10951;59.656;9.666;2022-09-09T18:06:44;13.40;80.90
21580;DHT22;10951;59.656;9.666;2022-09-09T18:09:16;13.30;81.10
21580;DHT22;10951;59.656;9.666;2022-09-09T18:11:46;13.30;81.10
21580;DHT22;10951;59.656;9.666;2022-09-09T18:14:17;13.30;81.30
21580;DHT22;10951;59.656;9.666;2022-09-09T18:16:46;13.30;81.40